sensor_id;sensor_type;location;lat;lon;timestamp;temperature;humidity
41668;DHT22;27356;50.920;5.350;2022-08-19T00:00:44;19.70;99.90
41668;DHT22;27356;50.920;5.350;2022-08-19T00:03:10;19.60;99.90
41668;DHT22;27356;50.920;5.350;2022-08-19T00:05:35;19.60;99.90
41668;DHT22;27356;50.920;5.350;2022-08-19T00:08:01;19.60;99.90
41668;DHT22;27356;50.920;5.350;2022-08-19T00:10:27;19.60;99.90
41668;DHT22;27356;50.920;5.350;2022-08-19T00:12:53;19.50;99.90
41668;DHT22;27356;50.920;5.350;2022-08-19T00:15:19;19.50;99.90
41668;DHT22;27356;50.920;5.350;2022-08-19T00:17:45;19.50;99.90
41668;DHT22;27356;50.920;5.350;2022-08-19T00:20:12;19.40;99.90
41668;DHT22;27356;50.920;5.350;2022-08-19T00:22:38;19.40;99.90
41668;DHT22;27356;50.920;5.350;2022-08-19T00:25:04;19.40;99.90
41668;DHT22;27356;50.920;5.350;2022-08-19T00:27:31;19.30;99.90
41668;DHT22;27356;50.920;5.350;2022-08-19T00:29:56;19.30;99.90
41668;DHT22;27356;50.920;5.350;2022-08-19T00:32:23;19.30;99.90
41668;DHT22;27356;50.920;5.350;2022-08-19T00:34:50;19.20;99.90
41668;DHT22;27356;50.920;5.350;2022-08-19T00:37:18;19.20;99.90
41668;DHT22;27356;50.920;5.350;2022-08-19T00:39:44;19.10;99.90
41668;DHT22;27356;50.920;5.350;2022-08-19T00:42:10;19.10;99.90
41668;DHT22;27356;50.920;5.350;2022-08-19T00:44:35;19.10;99.90
41668;DHT22;27356;50.920;5.350;2022-08-19T00:47:01;19.00;99.90
41668;DHT22;27356;50.920;5.350;2022-08-19T00:49:31;19.00;99.90
41668;DHT22;27356;50.920;5.350;2022-08-19T00:52:00;19.00;99.90
41668;DHT22;27356;50.920;5.350;2022-08-19T00:54:26;19.00;99.90
41668;DHT22;27356;50.920;5.350;2022-08-19T00:56:52;19.00;99.90
41668;DHT22;27356;50.920;5.350;2022-08-19T00:59:18;18.90;99.90
41668;DHT22;27356;50.920;5.350;2022-08-19T01:01:44;18.90;99.90
41668;DHT22;27356;50.920;5.350;2022-08-19T01:04:11;18.90;99.90
41668;DHT22;27356;50.920;5.350;2022-08-19T01:06:37;18.90;99.90
41668;DHT22;27356;50.920;5.350;2022-08-19T01:09:03;18.90;99.90
41668;DHT22;27356;50.920;5.350;2022-08-19T01:11:30;18.80;99.90
41668;DHT22;27356;50.920;5.350;2022-08-19T01:13:55;18.80;99.90
41668;DHT22;27356;50.920;5.350;2022-08-19T01:16:22;18.80;99.90
41668;DHT22;27356;50.920;5.350;2022-08-19T01:18:49;18.80;99.90
41668;DHT22;27356;50.920;5.350;2022-08-19T01:23:46;18.80;99.90
41668;DHT22;27356;50.920;5.350;2022-08-19T01:26:14;18.80;99.90
41668;DHT22;27356;50.920;5.350;2022-08-19T01:28:40;18.70;99.90
41668;DHT22;27356;50.920;5.350;2022-08-19T01:31:08;18.70;99.90
41668;DHT22;27356;50.920;5.350;2022-08-19T01:33:36;18.70;99.90
41668;DHT22;27356;50.920;5.350;2022-08-19T01:36:06;18.70;99.90
41668;DHT22;27356;50.920;5.350;2022-08-19T01:38:34;18.60;99.90
41668;DHT22;27356;50.920;5.350;2022-08-19T01:41:00;18.60;99.90
41668;DHT22;27356;50.920;5.350;2022-08-19T01:43:25;18.60;99.90
41668;DHT22;27356;50.920;5.350;2022-08-19T01:45:51;18.50;99.90
41668;DHT22;27356;50.920;5.350;2022-08-19T01:48:18;18.40;99.90
41668;DHT22;27356;50.920;5.350;2022-08-19T01:50:43;18.40;99.90
41668;DHT22;27356;50.920;5.350;2022-08-19T01:53:10;18.40;99.90
41668;DHT22;27356;50.920;5.350;2022-08-19T01:55:36;18.40;99.90
41668;DHT22;27356;50.920;5.350;2022-08-19T01:58:02;18.40;99.90
41668;DHT22;27356;50.920;5.350;2022-08-19T02:00:30;18.40;99.90
41668;DHT22;27356;50.920;5.350;2022-08-19T02:02:56;18.30;99.90
41668;DHT22;27356;50.920;5.350;2022-08-19T02:05:22;18.40;99.90
41668;DHT22;27356;50.920;5.350;2022-08-19T02:07:48;18.40;99.90
41668;DHT22;27356;50.920;5.350;2022-08-19T02:10:15;18.30;99.90
41668;DHT22;27356;50.920;5.350;2022-08-19T02:12:41;18.20;99.90
41668;DHT22;27356;50.920;5.350;2022-08-19T02:15:07;18.20;99.90
41668;DHT22;27356;50.920;5.350;2022-08-19T02:17:32;18.20;99.90
41668;DHT22;27356;50.920;5.350;2022-08-19T02:19:58;18.20;99.90
41668;DHT22;27356;50.920;5.350;2022-08-19T02:22:24;18.20;99.90
41668;DHT22;27356;50.920;5.350;2022-08-19T02:24:51;18.10;99.90
41668;DHT22;27356;50.920;5.350;2022-08-19T02:27:17;18.10;99.90
41668;DHT22;27356;50.920;5.350;2022-08-19T02:29:42;18.10;99.90
41668;DHT22;27356;50.920;5.350;2022-08-19T02:32:08;18.10;99.90
41668;DHT22;27356;50.920;5.350;2022-08-19T02:34:34;18.10;99.90
41668;DHT22;27356;50.920;5.350;2022-08-19T02:37:00;18.10;99.90
41668;DHT22;27356;50.920;5.350;2022-08-19T02:39:25;18.00;99.90
41668;DHT22;27356;50.920;5.350;2022-08-19T02:41:51;17.90;99.90
41668;DHT22;27356;50.920;5.350;2022-08-19T02:44:17;17.90;99.90
41668;DHT22;27356;50.920;5.350;2022-08-19T02:46:44;17.80;99.90
41668;DHT22;27356;50.920;5.350;2022-08-19T02:49:10;17.90;99.90
41668;DHT22;27356;50.920;5.350;2022-08-19T02:51:37;17.90;99.90
41668;DHT22;27356;50.920;5.350;2022-08-19T02:54:03;17.80;99.90
41668;DHT22;27356;50.920;5.350;2022-08-19T02:56:29;17.80;99.90
41668;DHT22;27356;50.920;5.350;2022-08-19T02:58:56;17.80;99.90
41668;DHT22;27356;50.920;5.350;2022-08-19T03:01:26;17.80;99.90
41668;DHT22;27356;50.920;5.350;2022-08-19T03:03:52;17.80;99.90
41668;DHT22;27356;50.920;5.350;2022-08-19T03:06:18;17.80;99.90
41668;DHT22;27356;50.920;5.350;2022-08-19T03:08:45;17.80;99.90
41668;DHT22;27356;50.920;5.350;2022-08-19T03:11:15;17.80;99.90
41668;DHT22;27356;50.920;5.350;2022-08-19T03:13:41;17.80;99.90
41668;DHT22;27356;50.920;5.350;2022-08-19T03:16:08;17.80;99.90
41668;DHT22;27356;50.920;5.350;2022-08-19T03:18:34;17.70;99.90
41668;DHT22;27356;50.920;5.350;2022-08-19T03:20:59;17.70;99.90
41668;DHT22;27356;50.920;5.350;2022-08-19T03:23:25;17.70;99.90
41668;DHT22;27356;50.920;5.350;2022-08-19T03:25:51;17.70;99.90
41668;DHT22;27356;50.920;5.350;2022-08-19T03:28:18;17.60;99.90
41668;DHT22;27356;50.920;5.350;2022-08-19T03:30:54;17.70;99.90
41668;DHT22;27356;50.920;5.350;2022-08-19T03:33:22;17.60;99.90
41668;DHT22;27356;50.920;5.350;2022-08-19T03:35:58;17.70;99.90
41668;DHT22;27356;50.920;5.350;2022-08-19T03:38:24;17.60;99.90
41668;DHT22;27356;50.920;5.350;2022-08-19T03:40:49;17.60;99.90
41668;DHT22;27356;50.920;5.350;2022-08-19T03:43:15;17.60;99.90
41668;DHT22;27356;50.920;5.350;2022-08-19T03:45:44;17.60;99.90
41668;DHT22;27356;50.920;5.350;2022-08-19T03:48:09;17.50;99.90
41668;DHT22;27356;50.920;5.350;2022-08-19T03:50:39;17.50;99.90
41668;DHT22;27356;50.920;5.350;2022-08-19T03:53:04;17.50;99.90
41668;DHT22;27356;50.920;5.350;2022-08-19T03:55:30;17.40;99.90
41668;DHT22;27356;50.920;5.350;2022-08-19T03:57:55;17.40;99.90
41668;DHT22;27356;50.920;5.350;2022-08-19T04:00:21;17.40;99.90
41668;DHT22;27356;50.920;5.350;2022-08-19T04:02:47;17.30;99.90
41668;DHT22;27356;50.920;5.350;2022-08-19T04:05:12;17.30;99.90
41668;DHT22;27356;50.920;5.350;2022-08-19T04:07:39;17.30;99.90
41668;DHT22;27356;50.920;5.350;2022-08-19T04:10:05;17.30;99.90
41668;DHT22;27356;50.920;5.350;2022-08-19T04:12:31;17.30;99.90
41668;DHT22;27356;50.920;5.350;2022-08-19T04:14:56;17.20;99.90
41668;DHT22;27356;50.920;5.350;2022-08-19T04:17:23;17.20;99.90
41668;DHT22;27356;50.920;5.350;2022-08-19T04:19:49;17.20;99.90
41668;DHT22;27356;50.920;5.350;2022-08-19T04:22:14;17.20;99.90
41668;DHT22;27356;50.920;5.350;2022-08-19T04:24:40;17.20;99.90
41668;DHT22;27356;50.920;5.350;2022-08-19T04:27:05;17.20;99.90
41668;DHT22;27356;50.920;5.350;2022-08-19T04:29:31;17.20;99.90
41668;DHT22;27356;50.920;5.350;2022-08-19T04:31:57;17.10;99.90
41668;DHT22;27356;50.920;5.350;2022-08-19T04:34:24;17.10;99.90
41668;DHT22;27356;50.920;5.350;2022-08-19T04:36:50;17.10;99.90
41668;DHT22;27356;50.920;5.350;2022-08-19T04:39:18;17.00;99.90
41668;DHT22;27356;50.920;5.350;2022-08-19T04:41:44;17.10;99.90
41668;DHT22;27356;50.920;5.350;2022-08-19T04:44:30;17.10;99.90
41668;DHT22;27356;50.920;5.350;2022-08-19T04:46:56;17.10;99.90
41668;DHT22;27356;50.920;5.350;2022-08-19T04:49:21;17.10;99.90
41668;DHT22;27356;50.920;5.350;2022-08-19T04:51:48;17.10;99.90
41668;DHT22;27356;50.920;5.350;2022-08-19T04:54:15;17.10;99.90
41668;DHT22;27356;50.920;5.350;2022-08-19T04:56:40;17.10;99.90
41668;DHT22;27356;50.920;5.350;2022-08-19T04:59:06;17.10;99.90
41668;DHT22;27356;50.920;5.350;2022-08-19T05:01:32;17.10;99.90
41668;DHT22;27356;50.920;5.350;2022-08-19T05:03:58;17.20;99.90
41668;DHT22;27356;50.920;5.350;2022-08-19T05:06:24;17.30;99.90
41668;DHT22;27356;50.920;5.350;2022-08-19T05:08:50;17.40;99.90
41668;DHT22;27356;50.920;5.350;2022-08-19T05:11:17;17.40;99.90
41668;DHT22;27356;50.920;5.350;2022-08-19T05:13:43;17.50;99.90
41668;DHT22;27356;50.920;5.350;2022-08-19T05:16:10;17.50;99.90
41668;DHT22;27356;50.920;5.350;2022-08-19T05:18:35;17.50;99.90
41668;DHT22;27356;50.920;5.350;2022-08-19T05:21:20;17.60;99.90
41668;DHT22;27356;50.920;5.350;2022-08-19T05:24:05;17.70;99.90
41668;DHT22;27356;50.920;5.350;2022-08-19T05:26:37;17.80;99.90
41668;DHT22;27356;50.920;5.350;2022-08-19T05:29:03;18.00;99.90
41668;DHT22;27356;50.920;5.350;2022-08-19T05:31:29;18.20;99.90
41668;DHT22;27356;50.920;5.350;2022-08-19T05:33:55;18.40;99.90
41668;DHT22;27356;50.920;5.350;2022-08-19T05:36:21;18.60;99.90
41668;DHT22;27356;50.920;5.350;2022-08-19T05:38:46;18.70;99.90
41668;DHT22;27356;50.920;5.350;2022-08-19T05:41:13;18.90;99.90
41668;DHT22;27356;50.920;5.350;2022-08-19T05:43:40;19.30;99.90
41668;DHT22;27356;50.920;5.350;2022-08-19T05:46:06;19.70;99.90
41668;DHT22;27356;50.920;5.350;2022-08-19T05:48:33;20.10;99.90
41668;DHT22;27356;50.920;5.350;2022-08-19T05:51:02;20.40;99.90
41668;DHT22;27356;50.920;5.350;2022-08-19T05:53:28;20.80;99.90
41668;DHT22;27356;50.920;5.350;2022-08-19T05:55:54;21.20;99.90
41668;DHT22;27356;50.920;5.350;2022-08-19T05:58:19;21.70;99.90
41668;DHT22;27356;50.920;5.350;2022-08-19T06:00:45;21.90;99.90
41668;DHT22;27356;50.920;5.350;2022-08-19T06:03:10;22.20;99.90
41668;DHT22;27356;50.920;5.350;2022-08-19T06:05:36;22.40;99.90
41668;DHT22;27356;50.920;5.350;2022-08-19T06:08:01;22.80;99.90
41668;DHT22;27356;50.920;5.350;2022-08-19T06:10:27;23.10;99.90
41668;DHT22;27356;50.920;5.350;2022-08-19T06:12:53;23.00;99.90
41668;DHT22;27356;50.920;5.350;2022-08-19T06:15:19;23.10;99.90
41668;DHT22;27356;50.920;5.350;2022-08-19T06:17:45;23.40;99.90
41668;DHT22;27356;50.920;5.350;2022-08-19T06:20:11;23.40;99.90
41668;DHT22;27356;50.920;5.350;2022-08-19T06:22:39;23.30;99.90
41668;DHT22;27356;50.920;5.350;2022-08-19T06:25:05;23.50;99.90
41668;DHT22;27356;50.920;5.350;2022-08-19T06:27:34;23.60;99.90
41668;DHT22;27356;50.920;5.350;2022-08-19T06:30:01;23.60;99.90
41668;DHT22;27356;50.920;5.350;2022-08-19T06:32:26;23.60;99.90
41668;DHT22;27356;50.920;5.350;2022-08-19T06:34:52;24.00;99.90
41668;DHT22;27356;50.920;5.350;2022-08-19T06:37:18;24.50;99.90
41668;DHT22;27356;50.920;5.350;2022-08-19T06:39:44;24.80;99.60
41668;DHT22;27356;50.920;5.350;2022-08-19T06:42:10;25.30;98.40
41668;DHT22;27356;50.920;5.350;2022-08-19T06:44:42;25.60;97.20
41668;DHT22;27356;50.920;5.350;2022-08-19T06:47:09;25.70;96.40
41668;DHT22;27356;50.920;5.350;2022-08-19T06:49:35;26.00;95.90
41668;DHT22;27356;50.920;5.350;2022-08-19T06:52:01;25.50;96.90
41668;DHT22;27356;50.920;5.350;2022-08-19T06:54:27;25.60;96.80
41668;DHT22;27356;50.920;5.350;2022-08-19T06:56:59;25.10;97.30
41668;DHT22;27356;50.920;5.350;2022-08-19T06:59:28;25.40;96.70
41668;DHT22;27356;50.920;5.350;2022-08-19T07:01:58;25.50;96.80
41668;DHT22;27356;50.920;5.350;2022-08-19T07:04:25;26.00;95.90
41668;DHT22;27356;50.920;5.350;2022-08-19T07:06:56;26.60;95.20
41668;DHT22;27356;50.920;5.350;2022-08-19T07:09:22;27.40;93.70
41668;DHT22;27356;50.920;5.350;2022-08-19T07:11:48;27.60;92.20
41668;DHT22;27356;50.920;5.350;2022-08-19T07:14:16;27.50;92.10
41668;DHT22;27356;50.920;5.350;2022-08-19T07:16:43;27.40;92.60
41668;DHT22;27356;50.920;5.350;2022-08-19T07:19:10;26.80;93.00
41668;DHT22;27356;50.920;5.350;2022-08-19T07:21:36;26.30;93.70
41668;DHT22;27356;50.920;5.350;2022-08-19T07:24:02;26.20;94.00
41668;DHT22;27356;50.920;5.350;2022-08-19T07:26:29;26.10;94.20
41668;DHT22;27356;50.920;5.350;2022-08-19T07:28:55;26.00;94.70
41668;DHT22;27356;50.920;5.350;2022-08-19T07:31:23;25.60;95.10
41668;DHT22;27356;50.920;5.350;2022-08-19T07:33:49;25.00;96.70
41668;DHT22;27356;50.920;5.350;2022-08-19T07:36:17;24.60;97.60
41668;DHT22;27356;50.920;5.350;2022-08-19T07:38:43;24.50;98.10
41668;DHT22;27356;50.920;5.350;2022-08-19T07:41:14;24.50;98.10
41668;DHT22;27356;50.920;5.350;2022-08-19T07:43:40;24.60;98.20
41668;DHT22;27356;50.920;5.350;2022-08-19T07:46:06;24.60;98.00
41668;DHT22;27356;50.920;5.350;2022-08-19T07:48:31;24.70;98.10
41668;DHT22;27356;50.920;5.350;2022-08-19T07:50:58;25.10;97.30
41668;DHT22;27356;50.920;5.350;2022-08-19T07:53:28;24.80;98.20
41668;DHT22;27356;50.920;5.350;2022-08-19T07:55:54;25.50;97.30
41668;DHT22;27356;50.920;5.350;2022-08-19T07:58:20;26.30;95.50
41668;DHT22;27356;50.920;5.350;2022-08-19T08:00:47;26.40;95.40
41668;DHT22;27356;50.920;5.350;2022-08-19T08:03:13;27.10;93.50
41668;DHT22;27356;50.920;5.350;2022-08-19T08:05:39;27.50;93.10
41668;DHT22;27356;50.920;5.350;2022-08-19T08:08:23;27.20;92.80
41668;DHT22;27356;50.920;5.350;2022-08-19T08:11:08;27.10;92.70
41668;DHT22;27356;50.920;5.350;2022-08-19T08:13:34;27.00;93.20
41668;DHT22;27356;50.920;5.350;2022-08-19T08:16:01;26.60;93.40
41668;DHT22;27356;50.920;5.350;2022-08-19T08:18:26;26.40;93.70
41668;DHT22;27356;50.920;5.350;2022-08-19T08:20:52;26.70;93.30
41668;DHT22;27356;50.920;5.350;2022-08-19T08:23:21;26.90;92.90
41668;DHT22;27356;50.920;5.350;2022-08-19T08:25:55;26.70;93.70
41668;DHT22;27356;50.920;5.350;2022-08-19T08:28:21;26.70;92.60
41668;DHT22;27356;50.920;5.350;2022-08-19T08:30:48;26.70;92.90
41668;DHT22;27356;50.920;5.350;2022-08-19T08:33:21;26.80;93.20
41668;DHT22;27356;50.920;5.350;2022-08-19T08:35:47;26.60;93.10
41668;DHT22;27356;50.920;5.350;2022-08-19T08:38:13;26.30;93.30
41668;DHT22;27356;50.920;5.350;2022-08-19T08:45:36;27.20;92.70
41668;DHT22;27356;50.920;5.350;2022-08-19T08:48:13;27.40;92.50
41668;DHT22;27356;50.920;5.350;2022-08-19T08:50:41;27.60;92.00
41668;DHT22;27356;50.920;5.350;2022-08-19T08:53:08;28.20;91.60
41668;DHT22;27356;50.920;5.350;2022-08-19T08:55:35;28.90;90.20
41668;DHT22;27356;50.920;5.350;2022-08-19T09:00:27;30.10;88.70
41668;DHT22;27356;50.920;5.350;2022-08-19T09:02:54;30.90;85.60
41668;DHT22;27356;50.920;5.350;2022-08-19T09:05:20;31.40;83.10
41668;DHT22;27356;50.920;5.350;2022-08-19T09:07:50;31.40;82.80
41668;DHT22;27356;50.920;5.350;2022-08-19T09:13:09;31.20;81.70
41668;DHT22;27356;50.920;5.350;2022-08-19T09:15:42;31.00;82.00
41668;DHT22;27356;50.920;5.350;2022-08-19T09:18:09;31.40;81.40
41668;DHT22;27356;50.920;5.350;2022-08-19T09:20:35;31.80;80.00
41668;DHT22;27356;50.920;5.350;2022-08-19T09:23:01;31.50;81.00
41668;DHT22;27356;50.920;5.350;2022-08-19T09:25:26;31.10;81.90
41668;DHT22;27356;50.920;5.350;2022-08-19T09:27:53;31.60;80.80
41668;DHT22;27356;50.920;5.350;2022-08-19T09:30:20;32.60;78.80
41668;DHT22;27356;50.920;5.350;2022-08-19T09:32:47;33.50;77.10
41668;DHT22;27356;50.920;5.350;2022-08-19T09:35:13;34.00;76.40
41668;DHT22;27356;50.920;5.350;2022-08-19T09:37:39;33.30;76.60
41668;DHT22;27356;50.920;5.350;2022-08-19T09:40:05;33.40;76.60
41668;DHT22;27356;50.920;5.350;2022-08-19T09:42:31;33.00;75.60
41668;DHT22;27356;50.920;5.350;2022-08-19T09:44:57;31.80;78.40
41668;DHT22;27356;50.920;5.350;2022-08-19T09:47:22;30.90;79.50
41668;DHT22;27356;50.920;5.350;2022-08-19T09:49:48;30.50;79.50
41668;DHT22;27356;50.920;5.350;2022-08-19T09:52:14;30.50;80.30
41668;DHT22;27356;50.920;5.350;2022-08-19T09:54:41;30.70;80.90
41668;DHT22;27356;50.920;5.350;2022-08-19T09:57:07;31.70;77.60
41668;DHT22;27356;50.920;5.350;2022-08-19T09:59:33;32.10;77.90
41668;DHT22;27356;50.920;5.350;2022-08-19T10:01:58;32.60;76.30
41668;DHT22;27356;50.920;5.350;2022-08-19T10:04:24;32.50;76.30
41668;DHT22;27356;50.920;5.350;2022-08-19T10:07:09;32.20;76.20
41668;DHT22;27356;50.920;5.350;2022-08-19T10:09:35;31.70;76.60
41668;DHT22;27356;50.920;5.350;2022-08-19T10:12:01;31.20;77.10
41668;DHT22;27356;50.920;5.350;2022-08-19T10:14:27;30.50;77.80
41668;DHT22;27356;50.920;5.350;2022-08-19T10:16:53;29.90;79.50
41668;DHT22;27356;50.920;5.350;2022-08-19T10:19:19;30.20;79.60
41668;DHT22;27356;50.920;5.350;2022-08-19T10:21:46;30.10;78.70
41668;DHT22;27356;50.920;5.350;2022-08-19T10:24:12;29.90;79.60
41668;DHT22;27356;50.920;5.350;2022-08-19T10:26:39;29.90;80.60
41668;DHT22;27356;50.920;5.350;2022-08-19T10:29:07;29.80;80.70
41668;DHT22;27356;50.920;5.350;2022-08-19T10:31:33;29.60;79.90
41668;DHT22;27356;50.920;5.350;2022-08-19T10:33:59;29.70;80.90
41668;DHT22;27356;50.920;5.350;2022-08-19T10:36:30;29.70;81.20
41668;DHT22;27356;50.920;5.350;2022-08-19T10:38:57;29.20;81.00
41668;DHT22;27356;50.920;5.350;2022-08-19T10:41:28;28.60;82.90
41668;DHT22;27356;50.920;5.350;2022-08-19T10:43:54;29.00;82.90
41668;DHT22;27356;50.920;5.350;2022-08-19T10:46:21;29.40;82.80
41668;DHT22;27356;50.920;5.350;2022-08-19T10:48:48;29.50;82.80
41668;DHT22;27356;50.920;5.350;2022-08-19T10:51:14;29.50;81.90
41668;DHT22;27356;50.920;5.350;2022-08-19T10:53:58;29.90;81.60
41668;DHT22;27356;50.920;5.350;2022-08-19T10:56:24;30.40;81.40
41668;DHT22;27356;50.920;5.350;2022-08-19T10:59:08;30.40;79.60
41668;DHT22;27356;50.920;5.350;2022-08-19T11:01:34;30.40;79.50
41668;DHT22;27356;50.920;5.350;2022-08-19T11:04:00;30.60;79.10
41668;DHT22;27356;50.920;5.350;2022-08-19T11:06:26;30.50;78.30
41668;DHT22;27356;50.920;5.350;2022-08-19T11:08:52;30.60;79.30
41668;DHT22;27356;50.920;5.350;2022-08-19T11:11:18;30.40;79.50
41668;DHT22;27356;50.920;5.350;2022-08-19T11:13:44;30.50;79.40
41668;DHT22;27356;50.920;5.350;2022-08-19T11:16:15;30.40;80.00
41668;DHT22;27356;50.920;5.350;2022-08-19T11:18:42;30.30;80.20
41668;DHT22;27356;50.920;5.350;2022-08-19T11:23:45;30.40;80.10
41668;DHT22;27356;50.920;5.350;2022-08-19T11:26:12;30.00;80.40
41668;DHT22;27356;50.920;5.350;2022-08-19T11:28:37;30.30;80.50
41668;DHT22;27356;50.920;5.350;2022-08-19T11:31:14;30.60;79.90
41668;DHT22;27356;50.920;5.350;2022-08-19T11:33:40;30.60;79.50
41668;DHT22;27356;50.920;5.350;2022-08-19T11:36:06;30.90;78.50
41668;DHT22;27356;50.920;5.350;2022-08-19T11:38:32;31.20;79.00
41668;DHT22;27356;50.920;5.350;2022-08-19T11:41:00;30.80;79.50
41668;DHT22;27356;50.920;5.350;2022-08-19T11:43:26;31.00;79.00
41668;DHT22;27356;50.920;5.350;2022-08-19T11:45:53;31.20;78.80
41668;DHT22;27356;50.920;5.350;2022-08-19T11:48:19;31.20;78.90
41668;DHT22;27356;50.920;5.350;2022-08-19T11:50:48;30.90;79.10
41668;DHT22;27356;50.920;5.350;2022-08-19T11:53:13;30.60;79.90
41668;DHT22;27356;50.920;5.350;2022-08-19T11:55:39;30.60;80.70
41668;DHT22;27356;50.920;5.350;2022-08-19T11:58:05;30.60;80.50
41668;DHT22;27356;50.920;5.350;2022-08-19T12:00:33;31.00;79.20
41668;DHT22;27356;50.920;5.350;2022-08-19T12:03:00;30.80;80.10
41668;DHT22;27356;50.920;5.350;2022-08-19T12:05:26;31.10;79.30
41668;DHT22;27356;50.920;5.350;2022-08-19T12:07:51;31.00;79.80
41668;DHT22;27356;50.920;5.350;2022-08-19T12:10:17;30.80;80.60
41668;DHT22;27356;50.920;5.350;2022-08-19T12:12:43;30.90;81.20
41668;DHT22;27356;50.920;5.350;2022-08-19T12:15:11;30.70;80.20
41668;DHT22;27356;50.920;5.350;2022-08-19T12:17:37;30.80;80.80
41668;DHT22;27356;50.920;5.350;2022-08-19T12:20:03;30.60;80.80
41668;DHT22;27356;50.920;5.350;2022-08-19T12:22:28;30.20;81.70
41668;DHT22;27356;50.920;5.350;2022-08-19T12:24:54;30.20;81.50
41668;DHT22;27356;50.920;5.350;2022-08-19T12:27:20;30.20;81.70
41668;DHT22;27356;50.920;5.350;2022-08-19T12:29:45;30.20;82.50
41668;DHT22;27356;50.920;5.350;2022-08-19T12:32:11;30.10;82.10
41668;DHT22;27356;50.920;5.350;2022-08-19T12:34:37;30.10;83.30
41668;DHT22;27356;50.920;5.350;2022-08-19T12:37:03;30.40;81.80
41668;DHT22;27356;50.920;5.350;2022-08-19T12:39:29;30.30;82.00
41668;DHT22;27356;50.920;5.350;2022-08-19T12:41:56;30.50;81.10
41668;DHT22;27356;50.920;5.350;2022-08-19T12:44:23;30.50;81.10
41668;DHT22;27356;50.920;5.350;2022-08-19T12:46:48;29.80;82.80
41668;DHT22;27356;50.920;5.350;2022-08-19T12:49:14;29.80;83.20
41668;DHT22;27356;50.920;5.350;2022-08-19T12:51:40;29.70;83.40
41668;DHT22;27356;50.920;5.350;2022-08-19T12:54:06;29.50;84.10
41668;DHT22;27356;50.920;5.350;2022-08-19T12:56:32;29.30;84.70
41668;DHT22;27356;50.920;5.350;2022-08-19T12:59:00;29.40;84.20
41668;DHT22;27356;50.920;5.350;2022-08-19T13:01:26;29.30;84.40
41668;DHT22;27356;50.920;5.350;2022-08-19T13:03:52;29.20;84.30
41668;DHT22;27356;50.920;5.350;2022-08-19T13:06:18;29.30;84.70
41668;DHT22;27356;50.920;5.350;2022-08-19T13:08:44;29.20;85.00
41668;DHT22;27356;50.920;5.350;2022-08-19T13:11:14;29.40;84.40
41668;DHT22;27356;50.920;5.350;2022-08-19T13:13:40;29.40;84.30
41668;DHT22;27356;50.920;5.350;2022-08-19T13:16:07;29.40;84.70
41668;DHT22;27356;50.920;5.350;2022-08-19T13:18:33;29.10;85.20
41668;DHT22;27356;50.920;5.350;2022-08-19T13:21:06;29.30;85.10
41668;DHT22;27356;50.920;5.350;2022-08-19T13:23:32;29.50;84.90
41668;DHT22;27356;50.920;5.350;2022-08-19T13:25:58;29.40;84.80
41668;DHT22;27356;50.920;5.350;2022-08-19T13:28:24;29.20;85.10
41668;DHT22;27356;50.920;5.350;2022-08-19T13:30:49;29.20;86.00
41668;DHT22;27356;50.920;5.350;2022-08-19T13:33:34;29.10;86.30
41668;DHT22;27356;50.920;5.350;2022-08-19T13:36:00;29.10;86.60
41668;DHT22;27356;50.920;5.350;2022-08-19T13:38:26;29.20;86.50
41668;DHT22;27356;50.920;5.350;2022-08-19T13:40:53;29.30;86.10
41668;DHT22;27356;50.920;5.350;2022-08-19T13:43:19;29.00;87.00
41668;DHT22;27356;50.920;5.350;2022-08-19T13:45:46;29.20;87.30
41668;DHT22;27356;50.920;5.350;2022-08-19T13:48:12;29.10;86.90
41668;DHT22;27356;50.920;5.350;2022-08-19T13:50:40;29.20;86.80
41668;DHT22;27356;50.920;5.350;2022-08-19T13:53:07;29.20;86.90
41668;DHT22;27356;50.920;5.350;2022-08-19T13:55:39;29.20;87.50
41668;DHT22;27356;50.920;5.350;2022-08-19T13:58:07;29.40;87.40
41668;DHT22;27356;50.920;5.350;2022-08-19T14:00:34;29.50;86.20
41668;DHT22;27356;50.920;5.350;2022-08-19T14:03:02;29.80;86.80
41668;DHT22;27356;50.920;5.350;2022-08-19T14:05:37;30.00;85.30
41668;DHT22;27356;50.920;5.350;2022-08-19T14:08:03;30.40;84.10
41668;DHT22;27356;50.920;5.350;2022-08-19T14:10:29;30.50;83.30
41668;DHT22;27356;50.920;5.350;2022-08-19T14:12:57;30.60;83.60
41668;DHT22;27356;50.920;5.350;2022-08-19T14:15:27;30.70;83.50
41668;DHT22;27356;50.920;5.350;2022-08-19T14:17:56;30.80;83.00
41668;DHT22;27356;50.920;5.350;2022-08-19T14:20:22;30.70;83.50
41668;DHT22;27356;50.920;5.350;2022-08-19T14:22:49;30.60;83.90
41668;DHT22;27356;50.920;5.350;2022-08-19T14:25:17;30.80;82.90
41668;DHT22;27356;50.920;5.350;2022-08-19T14:27:43;30.70;82.50
41668;DHT22;27356;50.920;5.350;2022-08-19T14:30:12;30.60;83.00
41668;DHT22;27356;50.920;5.350;2022-08-19T14:32:45;30.40;84.00
41668;DHT22;27356;50.920;5.350;2022-08-19T14:35:14;30.10;84.20
41668;DHT22;27356;50.920;5.350;2022-08-19T14:37:41;30.20;84.00
41668;DHT22;27356;50.920;5.350;2022-08-19T14:40:08;30.00;84.30
41668;DHT22;27356;50.920;5.350;2022-08-19T14:42:38;29.90;85.20
41668;DHT22;27356;50.920;5.350;2022-08-19T14:45:07;29.80;85.10
41668;DHT22;27356;50.920;5.350;2022-08-19T14:47:33;29.70;84.70
41668;DHT22;27356;50.920;5.350;2022-08-19T14:49:58;29.60;84.70
41668;DHT22;27356;50.920;5.350;2022-08-19T14:52:24;29.70;84.50
41668;DHT22;27356;50.920;5.350;2022-08-19T14:54:50;29.80;84.50
41668;DHT22;27356;50.920;5.350;2022-08-19T14:57:16;29.80;84.70
41668;DHT22;27356;50.920;5.350;2022-08-19T14:59:42;29.80;84.00
41668;DHT22;27356;50.920;5.350;2022-08-19T15:02:07;30.00;83.70
41668;DHT22;27356;50.920;5.350;2022-08-19T15:04:33;30.00;83.80
41668;DHT22;27356;50.920;5.350;2022-08-19T15:06:58;30.00;83.90
41668;DHT22;27356;50.920;5.350;2022-08-19T15:09:24;29.90;84.10
41668;DHT22;27356;50.920;5.350;2022-08-19T15:11:50;29.70;84.30
41668;DHT22;27356;50.920;5.350;2022-08-19T15:14:15;29.70;84.40
41668;DHT22;27356;50.920;5.350;2022-08-19T15:16:42;29.80;84.90
41668;DHT22;27356;50.920;5.350;2022-08-19T15:19:07;30.10;84.80
41668;DHT22;27356;50.920;5.350;2022-08-19T15:21:33;30.10;84.00
41668;DHT22;27356;50.920;5.350;2022-08-19T15:23:59;30.00;84.20
41668;DHT22;27356;50.920;5.350;2022-08-19T15:26:25;29.80;84.20
41668;DHT22;27356;50.920;5.350;2022-08-19T15:28:52;29.80;84.00
41668;DHT22;27356;50.920;5.350;2022-08-19T15:31:19;29.60;84.30
41668;DHT22;27356;50.920;5.350;2022-08-19T15:33:46;29.30;85.50
41668;DHT22;27356;50.920;5.350;2022-08-19T15:36:13;29.10;85.70
41668;DHT22;27356;50.920;5.350;2022-08-19T15:38:39;29.00;85.80
41668;DHT22;27356;50.920;5.350;2022-08-19T15:41:13;28.80;86.20
41668;DHT22;27356;50.920;5.350;2022-08-19T15:43:50;28.80;86.40